.
WxDataArchive / Data Records for 2013-12-31
2013-12-30 December 2013 2014-01-01

Data Records for Tuesday, 31 December 2013

Time	Temp	Chill	HIndex	Humid	Dewpt	 Wind 	HiWind	WindDir	Rain 	Barom 
-----	----	-----	------	-----	-----	------	------	-------	-----	----- 
00:00	18.1	18.1	18.1	81	13.3	1	3	248	0.00	30.182 
00:05	18.1	18.1	18.1	81	13.3	0	3	248	0.00	30.182 
00:10	18.1	18.1	18.1	81	13.3	0	1	248	0.00	30.182 
00:15	18.1	18.1	18.1	82	13.5	0	1	248	0.00	30.173 
00:20	18.1	18.1	18.1	82	13.5	0	3	248	0.00	30.173 
00:25	18.0	18.0	18.0	82	13.5	1	3	248	0.00	30.173 
00:30	18.0	18.0	18.0	82	13.5	1	3	248	0.00	30.172 
00:35	18.0	18.0	18.0	82	13.5	1	4	248	0.00	30.172 
00:40	17.8	17.8	17.8	82	13.3	1	4	270	0.00	30.172 
00:45	17.8	17.8	17.8	82	13.3	1	3	270	0.00	30.171 
00:50	17.7	17.7	17.7	82	13.2	1	4	248	0.00	30.171 
00:55	17.5	17.5	17.5	82	13.0	0	3	248	0.00	30.171 
01:00	17.3	17.3	17.3	82	12.8	1	3	248	0.00	30.165 
01:05	17.2	17.2	17.2	82	12.7	1	3	248	0.00	30.165 
01:10	17.2	17.2	17.2	82	12.7	0	2	248	0.00	30.165 
01:15	17.0	17.0	17.0	82	12.5	0	2	248	0.00	30.160 
01:20	17.0	17.0	17.0	83	12.7	1	2	248	0.00	30.160 
01:25	16.9	16.9	16.9	82	12.4	1	3	248	0.00	30.160 
01:30	16.7	16.7	16.7	82	12.2	0	3	248	0.00	30.160 
01:35	16.5	16.5	16.5	82	12.0	0	1	248	0.00	30.160 
01:40	16.5	16.5	16.5	82	12.0	1	2	248	0.00	30.160 
01:45	16.4	16.4	16.4	82	11.9	1	5	292	0.00	30.159 
01:50	16.2	16.2	16.2	82	11.7	1	2	270	0.00	30.159 
01:55	16.2	16.2	16.2	81	11.4	0	3	270	0.00	30.159 
02:00	16.1	16.1	16.1	81	11.3	1	3	270	0.00	30.157 
02:05	16.1	16.1	16.1	81	11.3	0	2	270	0.00	30.157 
02:10	16.1	16.1	16.1	81	11.3	0	3	270	0.00	30.157 
02:15	15.9	15.9	15.9	81	11.1	1	3	270	0.00	30.154 
02:20	15.7	15.7	15.7	81	10.9	0	2	292	0.00	30.154 
02:25	15.6	15.6	15.6	81	10.8	0	2	292	0.00	30.154 
02:30	15.6	15.6	15.6	82	11.1	0	2	292	0.00	30.157 
02:35	15.4	15.4	15.4	82	10.9	0	2	292	0.00	30.157 
02:40	15.4	15.4	15.4	82	10.9	1	3	270	0.00	30.157 
02:45	15.4	15.4	15.4	82	10.9	0	2	270	0.00	30.160 
02:50	15.4	15.4	15.4	82	10.9	0	2	270	0.00	30.160 
02:55	15.4	15.4	15.4	82	10.9	0	2	270	0.00	30.160 
03:00	15.4	15.4	15.4	82	10.9	0	2	270	0.00	30.158 
03:05	15.4	15.4	15.4	82	10.9	0	1	270	0.00	30.158 
03:10	15.4	15.4	15.4	83	11.2	0	1	270	0.00	30.158 
03:15	15.4	15.4	15.4	83	11.2	0	1	270	0.00	30.158 
03:20	15.4	15.4	15.4	83	11.2	0	2	270	0.00	30.158 
03:25	15.4	15.4	15.4	83	11.2	0	2	270	0.00	30.158 
03:30	15.4	15.4	15.4	83	11.2	1	2	270	0.00	30.160 
03:35	15.4	15.4	15.4	83	11.2	0	3	270	0.00	30.160 
03:40	15.4	15.4	15.4	83	11.2	0	3	270	0.00	30.160 
03:45	15.4	15.4	15.4	83	11.2	1	2	270	0.00	30.158 
03:50	15.4	15.4	15.4	83	11.2	0	2	270	0.00	30.158 
03:55	15.4	15.4	15.4	83	11.2	0	3	270	0.00	30.158 
04:00	15.4	15.4	15.4	83	11.2	0	2	270	0.00	30.147 
04:05	15.4	15.4	15.4	83	11.2	0	2	270	0.00	30.147 
04:10	15.4	15.4	15.4	83	11.2	0	2	270	0.00	30.147 
04:15	15.4	15.4	15.4	83	11.2	0	2	270	0.00	30.150 
04:20	15.4	15.4	15.4	83	11.2	0	1	270	0.00	30.150 
04:25	15.6	15.6	15.6	83	11.4	1	3	270	0.00	30.150 
04:30	15.6	15.6	15.6	83	11.4	0	3	248	0.00	30.150 
04:35	15.6	15.6	15.6	83	11.4	1	4	248	0.00	30.150 
04:40	15.7	15.7	15.7	83	11.5	1	4	270	0.00	30.150 
04:45	15.7	15.7	15.7	82	11.2	1	4	248	0.00	30.149 
04:50	15.6	15.6	15.6	81	10.8	1	4	270	0.00	30.149 
04:55	15.6	15.6	15.6	81	10.8	1	4	270	0.00	30.149 
05:00	15.6	15.6	15.6	81	10.8	2	5	270	0.00	30.152 
05:05	15.6	15.6	15.6	81	10.8	2	4	270	0.00	30.152 
05:10	15.4	15.4	15.4	81	10.6	3	6	270	0.00	30.152 
05:15	15.2	15.2	15.2	81	10.4	2	5	270	0.00	30.165 
05:20	15.2	15.2	15.2	81	10.4	2	5	248	0.00	30.165 
05:25	15.1	15.1	15.1	79	9.8	2	5	270	0.00	30.165 
05:30	14.8	14.8	14.8	77	8.9	3	9	270	0.00	30.177 
05:35	14.4	14.4	14.4	75	8.0	2	5	270	0.00	30.177 
05:40	14.4	14.4	14.4	74	7.7	3	5	270	0.00	30.177 
05:45	14.4	14.4	14.4	73	7.4	3	7	270	0.00	30.178 
05:50	14.4	14.4	14.4	73	7.4	3	6	292	0.00	30.178 
05:55	14.3	14.3	14.3	74	7.6	2	6	270	0.00	30.178 
06:00	14.1	14.1	14.1	73	7.1	3	6	292	0.00	30.188 
06:05	14.0	14.0	14.0	72	6.7	3	11	270	0.00	30.188 
06:10	14.0	14.0	14.0	71	6.4	3	6	270	0.00	30.188 
06:15	14.0	14.0	14.0	72	6.7	2	5	270	0.00	30.192 
06:20	14.0	14.0	14.0	72	6.7	2	5	270	0.00	30.192 
06:25	14.0	14.0	14.0	72	6.7	1	3	248	0.00	30.192 
06:30	13.8	13.8	13.8	73	6.8	2	4	248	0.00	30.194 
06:35	14.0	14.0	14.0	73	7.0	2	4	270	0.00	30.194 
06:40	13.8	13.8	13.8	73	6.8	1	4	270	0.00	30.194 
06:45	13.8	13.8	13.8	73	6.8	1	2	270	0.00	30.197 
06:50	13.8	13.8	13.8	73	6.8	1	4	270	0.00	30.197 
06:55	13.8	13.8	13.8	73	6.8	1	4	270	0.00	30.197 
07:00	13.6	13.6	13.6	73	6.6	1	2	248	0.00	30.197 
07:05	13.6	13.6	13.6	73	6.6	1	3	248	0.00	30.197 
07:10	13.5	13.5	13.5	73	6.5	1	4	248	0.00	30.197 
07:15	13.5	13.5	13.5	73	6.5	1	3	270	0.00	30.208 
07:20	13.3	13.3	13.3	73	6.3	1	3	270	0.00	30.208 
07:25	13.1	13.1	13.1	74	6.4	1	3	315	0.00	30.208 
07:30	12.9	12.9	12.9	73	5.9	2	4	270	0.00	30.211 
07:35	12.9	12.9	12.9	73	5.9	1	4	248	0.00	30.211 
07:40	12.8	12.8	12.8	72	5.5	1	4	248	0.00	30.211 
07:45	12.8	12.8	12.8	72	5.5	1	4	248	0.00	30.227 
07:50	12.6	12.6	12.6	72	5.3	2	5	248	0.00	30.227 
07:55	12.4	12.4	12.4	72	5.1	2	5	270	0.00	30.227 
08:00	12.4	12.4	12.4	71	4.8	2	4	248	0.00	30.242 
08:05	12.3	12.3	12.3	72	5.0	1	3	225	0.00	30.242 
08:10	12.3	12.3	12.3	72	5.0	2	5	248	0.00	30.242 
08:15	12.3	12.3	12.3	72	5.0	2	5	270	0.00	30.256 
08:20	12.3	12.3	12.3	73	5.3	1	3	270	0.00	30.256 
08:25	12.1	12.1	12.1	73	5.1	2	5	248	0.00	30.256 
08:30	12.1	12.1	12.1	73	5.1	1	4	248	0.00	30.263 
08:35	11.9	11.9	11.9	73	4.9	2	5	270	0.00	30.263 
08:40	11.9	11.9	11.9	73	4.9	2	4	270	0.00	30.263 
08:45	11.9	11.9	11.9	73	4.9	1	3	270	0.00	30.271 
08:50	11.9	11.9	11.9	73	4.9	1	3	270	0.00	30.271 
08:55	12.1	12.1	12.1	74	5.4	1	3	270	0.00	30.271 
09:00	12.1	12.1	12.1	74	5.4	1	2	248	0.00	30.284 
09:05	12.1	12.1	12.1	74	5.4	1	3	248	0.00	30.284 
09:10	12.1	12.1	12.1	74	5.4	1	3	248	0.00	30.284 
09:15	12.1	12.1	12.1	74	5.4	0	2	248	0.00	30.292 
09:20	12.1	12.1	12.1	74	5.4	1	4	248	0.00	30.292 
09:25	12.1	12.1	12.1	74	5.4	1	3	248	0.00	30.292 
09:30	12.1	12.1	12.1	74	5.4	1	4	248	0.00	30.295 
09:35	12.1	12.1	12.1	74	5.4	1	3	248	0.00	30.295 
09:40	12.3	12.3	12.3	73	5.3	1	4	248	0.00	30.295 
09:45	12.4	12.4	12.4	73	5.4	1	5	248	0.00	30.314 
09:50	12.6	12.6	12.6	73	5.6	1	3	248	0.00	30.314 
09:55	12.8	12.8	12.8	72	5.5	1	4	270	0.00	30.314 
10:00	12.8	12.8	12.8	72	5.5	1	4	270	0.00	30.321 
10:05	12.9	12.9	12.9	72	5.6	1	5	248	0.00	30.321 
10:10	13.1	13.1	13.1	71	5.5	1	4	248	0.00	30.321 
10:15	13.1	13.1	13.1	71	5.5	1	4	248	0.00	30.336 
10:20	13.3	13.3	13.3	70	5.4	2	4	270	0.00	30.336 
10:25	13.5	13.5	13.5	70	5.6	1	4	248	0.00	30.336 
10:30	13.6	13.6	13.6	69	5.4	2	4	248	0.00	30.338 
10:35	13.8	13.8	13.8	69	5.5	1	6	270	0.00	30.338 
10:40	14.0	14.0	14.0	69	5.7	1	3	248	0.00	30.338 
10:45	14.3	14.3	14.3	69	6.0	1	4	248	0.00	30.354 
10:50	14.3	14.3	14.3	68	5.7	2	5	248	0.00	30.354 
10:55	14.1	14.1	14.1	68	5.5	2	6	248	0.00	30.354 
11:00	14.3	14.3	14.3	68	5.7	2	4	248	0.00	30.359 
11:05	14.3	14.3	14.3	68	5.7	1	4	248	0.00	30.359 
11:10	14.4	14.4	14.4	68	5.8	1	4	270	0.00	30.359 
11:15	14.4	14.4	14.4	67	5.5	1	5	248	0.00	30.354 
11:20	14.3	14.3	14.3	67	5.4	2	4	248	0.00	30.354 
11:25	14.6	14.6	14.6	66	5.3	3	5	270	0.00	30.354 
11:30	15.1	15.1	15.1	66	5.8	2	5	248	0.00	30.365 
11:35	15.1	15.1	15.1	65	5.5	2	5	248	0.00	30.365 
11:40	14.9	14.9	14.9	65	5.3	3	9	248	0.00	30.365 
11:45	14.9	14.9	14.9	65	5.3	2	7	270	0.00	30.366 
11:50	15.1	15.1	15.1	66	5.8	3	6	248	0.00	30.366 
11:55	15.1	15.1	15.1	65	5.5	2	7	248	0.00	30.366 
12:00	14.8	14.8	14.8	65	5.2	3	7	248	0.00	30.377 
12:05	14.9	8.3	14.9	65	5.3	4	12	248	0.00	30.377 
12:10	14.9	14.9	14.9	65	5.3	3	9	248	0.00	30.377 
12:15	14.9	14.9	14.9	66	5.6	2	7	248	0.00	30.373 
12:20	15.4	15.4	15.4	66	6.1	2	4	292	0.00	30.373 
12:25	15.7	15.7	15.7	65	6.1	2	4	292	0.00	30.373 
12:30	15.6	15.6	15.6	65	6.0	2	4	248	0.00	30.367 
12:35	15.2	15.2	15.2	65	5.6	2	6	248	0.00	30.367 
12:40	15.2	15.2	15.2	65	5.6	2	4	248	0.00	30.367 
12:45	15.7	15.7	15.7	66	6.4	2	4	248	0.00	30.355 
12:50	16.1	16.1	16.1	66	6.8	2	6	248	0.00	30.355 
12:55	16.1	16.1	16.1	64	6.1	3	10	248	0.00	30.355 
13:00	15.9	15.9	15.9	65	6.2	3	5	270	0.00	30.346 
13:05	16.2	16.2	16.2	66	6.9	2	4	270	0.00	30.346 
13:10	16.5	16.5	16.5	66	7.2	2	4	270	0.00	30.346 
13:15	16.7	16.7	16.7	64	6.7	1	4	248	0.00	30.332 
13:20	16.7	16.7	16.7	63	6.3	2	7	248	0.00	30.332 
13:25	16.5	16.5	16.5	64	6.5	2	6	248	0.00	30.332 
13:30	16.7	16.7	16.7	64	6.7	3	6	270	0.00	30.339 
13:35	16.7	16.7	16.7	64	6.7	3	6	270	0.00	30.339 
13:40	17.0	17.0	17.0	64	7.0	2	6	248	0.00	30.339 
13:45	17.2	17.2	17.2	64	7.1	2	5	248	0.00	30.333 
13:50	17.2	17.2	17.2	63	6.8	3	5	270	0.00	30.333 
13:55	17.3	17.3	17.3	63	6.9	1	4	270	0.00	30.333 
14:00	17.5	17.5	17.5	62	6.7	2	5	292	0.00	30.334 
14:05	17.8	17.8	17.8	63	7.4	2	3	292	0.00	30.334 
14:10	18.0	18.0	18.0	63	7.6	2	6	248	0.00	30.334 
14:15	17.8	17.8	17.8	62	7.0	2	4	248	0.00	30.324 
14:20	17.7	17.7	17.7	63	7.3	1	4	270	0.00	30.324 
14:25	17.7	17.7	17.7	64	7.6	1	4	248	0.00	30.324 
14:30	18.0	18.0	18.0	64	7.9	0	2	248	0.00	30.318 
14:35	18.0	18.0	18.0	64	7.9	1	3	248	0.00	30.318 
14:40	18.0	18.0	18.0	64	7.9	1	3	248	0.00	30.318 
14:45	17.8	17.8	17.8	63	7.4	1	3	248	0.00	30.314 
14:50	18.0	18.0	18.0	63	7.6	0	2	248	0.00	30.314 
14:55	17.8	17.8	17.8	62	7.0	1	3	248	0.00	30.314 
15:00	17.8	17.8	17.8	63	7.4	1	3	248	0.00	30.310 
15:05	18.0	18.0	18.0	63	7.6	1	3	248	0.00	30.310 
15:10	17.8	17.8	17.8	63	7.4	1	5	270	0.00	30.310 
15:15	18.0	18.0	18.0	64	7.9	0	3	270	0.00	30.321 
15:20	18.0	18.0	18.0	63	7.6	1	4	248	0.00	30.321 
15:25	18.0	18.0	18.0	63	7.6	1	4	248	0.00	30.321 
15:30	18.0	18.0	18.0	63	7.6	1	4	270	0.00	30.324 
15:35	18.1	18.1	18.1	64	8.0	1	3	248	0.00	30.324 
15:40	18.0	18.0	18.0	64	7.9	1	4	248	0.00	30.324 
15:45	17.8	17.8	17.8	64	7.7	2	6	248	0.00	30.324 
15:50	17.7	17.7	17.7	65	8.0	1	3	248	0.00	30.324 
15:55	17.8	17.8	17.8	65	8.1	1	3	248	0.00	30.324 
16:00	18.0	18.0	18.0	66	8.6	0	2	248	0.00	30.330 
16:05	18.0	18.0	18.0	65	8.3	1	4	248	0.00	30.330 
16:10	18.0	18.0	18.0	65	8.3	2	5	248	0.00	30.330 
16:15	18.0	18.0	18.0	65	8.3	1	3	248	0.00	30.336 
16:20	18.0	18.0	18.0	65	8.3	1	4	248	0.00	30.336 
16:25	18.0	18.0	18.0	65	8.3	2	7	248	0.00	30.336 
16:30	18.0	18.0	18.0	65	8.3	2	4	270	0.00	30.336 
16:35	18.0	18.0	18.0	65	8.3	2	6	248	0.00	30.336 
16:40	18.0	18.0	18.0	64	7.9	2	5	248	0.00	30.336 
16:45	18.0	18.0	18.0	65	8.3	1	4	270	0.00	30.336 
16:50	18.0	18.0	18.0	65	8.3	1	4	270	0.00	30.336 
16:55	17.8	17.8	17.8	65	8.1	2	4	248	0.00	30.336 
17:00	17.8	17.8	17.8	66	8.4	2	4	248	0.00	30.334 
17:05	17.8	17.8	17.8	66	8.4	1	4	248	0.00	30.334 
17:10	17.8	17.8	17.8	67	8.7	2	6	248	0.00	30.334 
17:15	17.8	17.8	17.8	68	9.1	1	4	248	0.00	30.332 
17:20	17.7	17.7	17.7	69	9.3	1	4	270	0.00	30.332 
17:25	17.7	17.7	17.7	70	9.6	0	2	248	0.00	30.332 
17:30	17.5	17.5	17.5	71	9.7	0	2	248	0.00	30.330 
17:35	17.5	17.5	17.5	72	10.0	1	3	248	0.00	30.330 
17:40	17.3	17.3	17.3	73	10.2	0	2	248	0.00	30.330 
17:45	17.3	17.3	17.3	73	10.2	1	3	248	0.00	30.329 
17:50	17.2	17.2	17.2	74	10.4	0	2	248	0.00	30.329 
17:55	17.2	17.2	17.2	75	10.7	1	3	248	0.00	30.329 
18:00	17.2	17.2	17.2	75	10.7	0	2	248	0.00	30.326 
18:05	17.2	17.2	17.2	76	11.0	0	2	248	0.00	30.326 
18:10	17.0	17.0	17.0	76	10.8	0	3	248	0.00	30.326 
18:15	17.0	17.0	17.0	76	10.8	0	2	248	0.00	30.325 
18:20	16.9	16.9	16.9	76	10.7	0	1	248	0.00	30.325 
18:25	17.0	17.0	17.0	77	11.1	0	1	248	0.00	30.325 
18:30	17.0	17.0	17.0	77	11.1	0	1	248	0.00	30.325 
18:35	17.0	17.0	17.0	77	11.1	0	1	248	0.00	30.325 
18:40	17.2	17.2	17.2	77	11.3	0	2	248	0.00	30.325 
18:45	17.2	17.2	17.2	77	11.3	0	2	248	0.00	30.330 
18:50	17.3	17.3	17.3	77	11.3	1	4	248	0.00	30.330 
18:55	17.3	17.3	17.3	77	11.3	0	1	248	0.00	30.330 
19:00	17.3	17.3	17.3	77	11.3	0	1	248	0.00	30.325 
19:05	17.3	17.3	17.3	78	11.6	0	1	248	0.00	30.325 
19:10	17.3	17.3	17.3	78	11.6	0	2	248	0.00	30.325 
19:15	17.3	17.3	17.3	78	11.6	0	2	248	0.00	30.335 
19:20	17.3	17.3	17.3	78	11.6	0	1	248	0.00	30.335 
19:25	17.5	17.5	17.5	78	11.8	0	1	248	0.00	30.335 
19:30	17.5	17.5	17.5	78	11.8	0	1	248	0.00	30.338 
19:35	17.5	17.5	17.5	78	11.8	0	1	248	0.00	30.338 
19:40	17.5	17.5	17.5	78	11.8	0	1	248	0.00	30.338 
19:45	17.5	17.5	17.5	78	11.8	0	1	248	0.00	30.341 
19:50	17.5	17.5	17.5	79	12.1	0	2	248	0.00	30.341 
19:55	17.5	17.5	17.5	79	12.1	0	1	248	0.00	30.341 
20:00	17.5	17.5	17.5	79	12.1	0	1	248	0.00	30.345 
20:05	17.7	17.7	17.7	79	12.3	0	1	248	0.00	30.345 
20:10	17.7	17.7	17.7	79	12.3	0	1	248	0.00	30.345 
20:15	17.7	17.7	17.7	79	12.3	0	1	248	0.00	30.341 
20:20	17.8	17.8	17.8	79	12.4	0	3	292	0.00	30.341 
20:25	17.7	17.7	17.7	79	12.3	0	1	292	0.00	30.341 
20:30	17.7	17.7	17.7	79	12.3	0	1	292	0.00	30.335 
20:35	17.8	17.8	17.8	79	12.4	0	1	292	0.00	30.335 
20:40	17.8	17.8	17.8	79	12.4	0	1	292	0.00	30.335 
20:45	17.8	17.8	17.8	79	12.4	0	1	292	0.00	30.323 
20:50	17.8	17.8	17.8	79	12.4	0	1	292	0.00	30.323 
20:55	17.8	17.8	17.8	79	12.4	0	2	292	0.00	30.323 
21:00	17.8	17.8	17.8	80	12.7	0	1	292	0.00	30.328 
21:05	17.8	17.8	17.8	80	12.7	0	3	292	0.00	30.328 
21:10	17.8	17.8	17.8	79	12.4	0	2	292	0.00	30.328 
21:15	17.8	17.8	17.8	79	12.4	0	2	292	0.00	30.334 
21:20	17.8	17.8	17.8	79	12.4	0	2	292	0.00	30.334 
21:25	17.8	17.8	17.8	79	12.4	0	1	292	0.00	30.334 
21:30	17.8	17.8	17.8	79	12.4	0	1	292	0.00	30.333 
21:35	17.8	17.8	17.8	79	12.4	0	1	292	0.00	30.333 
21:40	17.8	17.8	17.8	79	12.4	0	1	292	0.00	30.333 
21:45	17.8	17.8	17.8	79	12.4	0	1	292	0.00	30.338 
21:50	17.8	17.8	17.8	79	12.4	0	2	292	0.00	30.338 
21:55	17.8	17.8	17.8	79	12.4	0	1	292	0.00	30.338 
22:00	17.8	17.8	17.8	79	12.4	0	1	292	0.00	30.340 
22:05	17.8	17.8	17.8	79	12.4	0	1	292	0.00	30.340 
22:10	18.0	18.0	18.0	79	12.6	0	0	---	0.00	30.340 
22:15	18.0	18.0	18.0	79	12.6	0	1	292	0.00	30.338 
22:20	18.0	18.0	18.0	80	12.9	0	1	292	0.00	30.338 
22:25	18.0	18.0	18.0	80	12.9	0	2	292	0.00	30.338 
22:30	18.0	18.0	18.0	80	12.9	0	2	292	0.00	30.346 
22:35	18.0	18.0	18.0	80	12.9	0	2	292	0.00	30.346 
22:40	18.0	18.0	18.0	79	12.6	1	3	292	0.00	30.346 
22:45	17.8	17.8	17.8	79	12.4	1	3	292	0.00	30.347 
22:50	17.8	17.8	17.8	80	12.7	0	2	292	0.00	30.347 
22:55	17.8	17.8	17.8	80	12.7	0	3	292	0.00	30.347 
23:00	17.8	17.8	17.8	79	12.4	0	2	292	0.00	30.354 
23:05	17.8	17.8	17.8	79	12.4	0	1	292	0.00	30.354 
23:10	17.8	17.8	17.8	79	12.4	0	1	292	0.00	30.354 
23:15	17.8	17.8	17.8	79	12.4	0	1	292	0.00	30.353 
23:20	17.8	17.8	17.8	79	12.4	0	1	292	0.00	30.353 
23:25	17.8	17.8	17.8	79	12.4	0	0	---	0.00	30.353 
23:30	17.8	17.8	17.8	79	12.4	0	1	292	0.00	30.352 
23:35	17.8	17.8	17.8	79	12.4	0	0	---	0.00	30.352 
23:40	17.8	17.8	17.8	79	12.4	0	0	---	0.00	30.352 
23:45	17.8	17.8	17.8	78	12.1	0	0	---	0.00	30.347 
23:50	17.7	17.7	17.7	78	12.0	0	1	292	0.00	30.347 
23:55	17.7	17.7	17.7	78	12.0	0	0	---	0.00	30.347 

CoCoRaHS
IN-AL-39
A2 Web Hosting
Creative Commons License
GoDaddy
search engine by freefind advanced

loaded 2018-11-16 00:12:32 • last modified 2010-11-18 10:43:29
Privacy PolicyDisclaimer
• wx.awcolley.com is powered by PmWiki v.2002016 •
• all content (unless otherwise noted) © 2018 A W Colley